Time;durP1;ratioP1;P1;durP2;ratioP2;P2;SDS_P1;SDS_P2;PMS_P1;PMS_P2;Temp;Humidity;BMP_temperature;BMP_pressure;BME280_temperature;BME280_humidity;BME280_pressure;Samples;Min_cycle;Max_cycle;Signal;HPM_P1;HPM_P2
2022/06/25 00:01:14;;;;;;;;;;;;;;;25.82;51.35;98734.53;7317092;19;129093;-34
2022/06/25 00:03:40;;;;;;;;;;;;;;;25.87;51.61;98732.13;7317206;19;129137;-35
2022/06/25 00:06:06;;;;;;;;;;;;;;;25.89;51.34;98738.84;7317007;19;129436;-33
2022/06/25 00:08:32;;;;;;;;;;;;;;;25.93;51.70;98739.28;7313193;19;130169;-38
2022/06/25 00:10:57;;;;;;;;;;;;;;;25.92;51.25;98730.56;7316613;19;130595;-37
2022/06/25 00:13:22;;;;;;;;;;;;;;;25.94;52.25;98736.47;7314874;19;129925;-33
2022/06/25 00:15:47;;;;;;;;;;;;;;;25.49;46.19;98732.34;7316538;19;128753;-32
2022/06/25 00:18:14;;;;;;;;;;;;;;;25.26;46.66;98728.19;7309284;19;129862;-35
2022/06/25 00:20:39;;;;;;;;;;;;;;;25.19;45.94;98735.19;7316368;19;130732;-39
2022/06/25 00:23:05;;;;;;;;;;;;;;;25.18;46.09;98733.56;7315517;19;129952;-30
2022/06/25 00:25:30;;;;;;;;;;;;;;;25.18;45.73;98726.50;7315327;19;129189;-34
2022/06/25 00:27:55;;;;;;;;;;;;;;;25.18;45.99;98730.94;7312491;19;129661;-39
2022/06/25 00:30:20;;;;;;;;;;;;;;;25.19;48.43;98714.13;7314845;19;129084;-34
2022/06/25 00:32:46;;;;;;;;;;;;;;;25.52;51.49;98728.53;7316029;19;129169;-37
2022/06/25 00:35:11;;;;;;;;;;;;;;;25.66;50.92;98725.03;7316204;19;129619;-37
2022/06/25 00:37:36;;;;;;;;;;;;;;;25.75;51.29;98731.00;7312783;19;130227;-35
2022/06/25 00:40:02;;;;;;;;;;;;;;;25.83;51.39;98726.44;7316431;19;129213;-34
2022/06/25 00:42:28;;;;;;;;;;;;;;;25.89;51.74;98728.31;7314950;19;129640;-34
2022/06/25 00:44:55;;;;;;;;;;;;;;;25.91;51.22;98728.94;7314219;19;129016;-36
2022/06/25 00:47:20;;;;;;;;;;;;;;;25.92;51.67;98725.31;7313359;19;130041;-39
2022/06/25 00:49:46;;;;;;;;;;;;;;;25.86;51.76;98717.34;7314808;19;130381;-36
2022/06/25 00:52:12;;;;;;;;;;;;;;;25.94;51.89;98728.56;7316340;19;129432;-36
2022/06/25 00:54:39;;;;;;;;;;;;;;;25.96;51.85;98723.94;7313708;19;128901;-31
2022/06/25 00:57:06;;;;;;;;;;;;;;;25.43;46.72;98727.03;7314187;19;129513;-33
2022/06/25 00:59:35;;;;;;;;;;;;;;;25.24;46.43;98727.56;7314762;19;129250;-33
2022/06/25 01:02:00;;;;;;;;;;;;;;;25.19;46.41;98729.91;7315742;19;129710;-29
2022/06/25 01:04:26;;;;;;;;;;;;;;;25.16;45.94;98725.03;7314509;19;130676;-31
2022/06/25 01:06:51;;;;;;;;;;;;;;;25.18;46.17;98728.31;7314682;19;129746;-39
2022/06/25 01:09:16;;;;;;;;;;;;;;;25.18;45.68;98723.03;7315749;19;129617;-39
2022/06/25 01:11:41;;;;;;;;;;;;;;;25.18;45.64;98717.78;7314860;19;128950;-34
2022/06/25 01:14:07;;;;;;;;;;;;;;;25.48;51.08;98722.03;7314974;19;129387;-34
2022/06/25 01:16:32;;;;;;;;;;;;;;;25.58;51.03;98710.16;7314312;19;129976;-33
2022/06/25 01:18:58;;;;;;;;;;;;;;;25.76;51.31;98716.84;7313810;19;130247;-32
2022/06/25 01:21:23;;;;;;;;;;;;;;;25.83;51.28;98715.09;7314015;19;129415;-39
2022/06/25 01:23:48;;;;;;;;;;;;;;;25.88;51.90;98716.16;7313173;19;129515;-34
2022/06/25 01:26:14;;;;;;;;;;;;;;;25.91;51.28;98718.41;7314358;19;128959;-35
2022/06/25 01:28:39;;;;;;;;;;;;;;;25.84;51.95;98701.72;7309354;19;129973;-33
2022/06/25 01:31:04;;;;;;;;;;;;;;;25.95;51.47;98717.03;7314778;19;129309;-36
2022/06/25 01:33:29;;;;;;;;;;;;;;;25.97;51.40;98722.09;7311931;19;129764;-39
2022/06/25 01:35:55;;;;;;;;;;;;;;;25.97;51.96;98725.56;7313852;19;130018;-38
2022/06/25 01:38:20;;;;;;;;;;;;;;;25.95;51.48;98721.50;7310220;19;130666;-36
2022/06/25 01:40:45;;;;;;;;;;;;;;;25.34;46.01;98722.81;7314156;19;129138;-39
2022/06/25 01:43:10;;;;;;;;;;;;;;;25.22;46.60;98724.31;7313988;19;129731;-34
2022/06/25 01:45:36;;;;;;;;;;;;;;;25.21;45.82;98722.66;7312873;19;129816;-30
2022/06/25 01:48:03;;;;;;;;;;;;;;;25.18;45.73;98718.59;7311942;19;129660;-33
2022/06/25 01:50:29;;;;;;;;;;;;;;;25.19;45.60;98716.75;7313041;19;128803;-35
2022/06/25 01:52:54;;;;;;;;;;;;;;;25.20;45.65;98711.34;7313669;19;129195;-40
2022/06/25 01:55:20;;;;;;;;;;;;;;;25.40;50.50;98716.88;7312848;19;129590;-37
2022/06/25 01:57:45;;;;;;;;;;;;;;;25.60;51.30;98718.69;7310781;19;130336;-37
2022/06/25 02:00:14;;;;;;;;;;;;;;;25.73;51.46;98723.31;7313738;19;128977;-33
2022/06/25 02:02:39;;;;;;;;;;;;;;;25.81;51.61;98725.00;7312396;19;128911;-36
2022/06/25 02:05:05;;;;;;;;;;;;;;;25.80;51.89;98713.63;7313624;19;129694;-36
2022/06/25 02:07:31;;;;;;;;;;;;;;;25.91;51.32;98736.03;7311543;19;130306;-40
2022/06/25 02:09:56;;;;;;;;;;;;;;;25.94;52.08;98731.19;7314435;19;129360;-28
2022/06/25 02:12:21;;;;;;;;;;;;;;;25.95;51.96;98735.47;7313152;19;129060;-37
2022/06/25 02:14:47;;;;;;;;;;;;;;;25.97;51.74;98730.81;7311557;19;129816;-35
2022/06/25 02:17:12;;;;;;;;;;;;;;;25.98;51.99;98729.00;7311776;19;129343;-41
2022/06/25 02:19:37;;;;;;;;;;;;;;;25.32;46.29;98716.94;7311758;19;129063;-35
2022/06/25 02:22:02;;;;;;;;;;;;;;;25.25;46.63;98739.72;7313472;19;129008;-35
2022/06/25 02:24:28;;;;;;;;;;;;;;;25.20;46.13;98740.28;7311787;19;130047;-36
2022/06/25 02:26:53;;;;;;;;;;;;;;;25.19;46.04;98748.34;7310746;19;129717;-32
2022/06/25 02:29:18;;;;;;;;;;;;;;;25.19;45.61;98759.69;7311500;19;129980;-31
2022/06/25 02:31:43;;;;;;;;;;;;;;;25.19;45.45;98767.56;7313171;19;128869;-42
2022/06/25 02:34:09;;;;;;;;;;;;;;;25.28;49.49;98776.19;7311645;19;129449;-41
2022/06/25 02:36:34;;;;;;;;;;;;;;;25.54;50.85;98782.63;7311409;19;129348;-35
2022/06/25 02:38:59;;;;;;;;;;;;;;;25.70;51.29;98776.34;7311677;19;128984;-33
2022/06/25 02:41:24;;;;;;;;;;;;;;;25.80;51.07;98782.09;7314790;19;128859;-39
2022/06/25 02:43:49;;;;;;;;;;;;;;;25.86;51.48;98781.38;7318166;19;130066;-34
2022/06/25 02:46:15;;;;;;;;;;;;;;;25.90;51.77;98787.09;7319206;19;130169;-45
2022/06/25 02:48:40;;;;;;;;;;;;;;;25.92;51.28;98785.88;7316062;19;129194;-41
2022/06/25 02:51:06;;;;;;;;;;;;;;;25.94;51.48;98786.50;7319232;19;129900;-32
2022/06/25 02:53:31;;;;;;;;;;;;;;;25.95;51.71;98798.66;7317078;19;131043;-35
2022/06/25 02:58:56;;;;;;;;;;;;;;;25.99;52.06;98796.47;7316033;19;129060;-38
2022/06/25 03:01:25;;;;;;;;;;;;;;;25.34;46.15;98804.38;7318713;19;129362;-36
2022/06/25 03:03:51;;;;;;;;;;;;;;;25.24;45.89;98801.22;7318231;19;130899;-32
2022/06/25 03:06:16;;;;;;;;;;;;;;;25.20;46.05;98816.56;7318611;19;129087;-36
2022/06/25 03:08:41;;;;;;;;;;;;;;;25.21;45.93;98817.38;7316264;19;129094;-31
2022/06/25 03:11:07;;;;;;;;;;;;;;;25.22;45.46;98819.03;7317930;19;128814;-37
2022/06/25 03:13:34;;;;;;;;;;;;;;;25.23;45.91;98821.47;7317591;19;130104;-34
2022/06/25 03:16:00;;;;;;;;;;;;;;;25.43;50.23;98824.41;7317805;19;130303;-38
2022/06/25 03:18:25;;;;;;;;;;;;;;;25.61;50.53;98824.81;7315896;19;131098;-31
2022/06/25 03:20:50;;;;;;;;;;;;;;;25.75;51.06;98831.06;7315600;19;129043;-30
2022/06/25 03:23:15;;;;;;;;;;;;;;;25.83;51.51;98833.59;7314316;19;129496;-40
2022/06/25 03:25:41;;;;;;;;;;;;;;;25.89;51.04;98844.19;7317024;19;129750;-34
2022/06/25 03:28:06;;;;;;;;;;;;;;;25.93;51.63;98849.91;7315557;19;129197;-39
2022/06/25 03:30:31;;;;;;;;;;;;;;;25.86;51.33;98834.03;7317710;19;129008;-40
2022/06/25 03:32:57;;;;;;;;;;;;;;;25.97;51.83;98851.16;7316821;19;129460;-35
2022/06/25 03:35:22;;;;;;;;;;;;;;;25.98;52.01;98853.59;7317345;19;130831;-37
2022/06/25 03:37:47;;;;;;;;;;;;;;;25.98;51.46;98850.97;7315633;19;128959;-34
2022/06/25 03:40:12;;;;;;;;;;;;;;;25.47;46.97;98830.91;7317973;19;129570;-33
2022/06/25 03:42:38;;;;;;;;;;;;;;;25.30;46.44;98848.66;7316396;19;129254;-35
2022/06/25 03:45:03;;;;;;;;;;;;;;;25.24;46.15;98859.94;7316799;19;131128;-34
2022/06/25 03:47:28;;;;;;;;;;;;;;;25.14;46.42;98842.78;7316421;19;129188;-38
2022/06/25 03:49:55;;;;;;;;;;;;;;;25.22;46.14;98866.38;7317015;19;128866;-32
2022/06/25 03:52:20;;;;;;;;;;;;;;;25.22;46.07;98882.97;7317006;19;130169;-40
2022/06/25 03:54:45;;;;;;;;;;;;;;;25.24;45.51;98873.09;7317448;19;130608;-40
2022/06/25 03:57:10;;;;;;;;;;;;;;;25.46;50.73;98876.66;7316222;19;129768;-38
2022/06/25 03:59:36;;;;;;;;;;;;;;;25.59;50.81;98872.41;7317458;19;128814;-32
2022/06/25 04:02:01;;;;;;;;;;;;;;;25.77;50.93;98884.38;7316261;19;129204;-33
2022/06/25 04:04:26;;;;;;;;;;;;;;;25.83;51.79;98889.72;7316366;19;131448;-32
2022/06/25 04:06:51;;;;;;;;;;;;;;;25.90;51.70;98892.44;7316415;19;129168;-35
2022/06/25 04:09:17;;;;;;;;;;;;;;;25.93;51.68;98897.31;7315945;19;129002;-36
2022/06/25 04:11:43;;;;;;;;;;;;;;;25.95;51.54;98901.41;7316773;19;130596;-40
2022/06/25 04:14:08;;;;;;;;;;;;;;;25.97;51.71;98893.31;7316636;19;129264;-41
2022/06/25 04:16:34;;;;;;;;;;;;;;;25.99;51.91;98904.47;7316939;19;129417;-33
2022/06/25 04:18:59;;;;;;;;;;;;;;;25.99;52.01;98902.69;7313234;19;129241;-38
2022/06/25 04:21:24;;;;;;;;;;;;;;;25.41;46.56;98908.78;7316581;19;129566;-32
2022/06/25 04:23:50;;;;;;;;;;;;;;;25.28;46.31;98913.00;7313352;19;129895;-38
2022/06/25 04:26:15;;;;;;;;;;;;;;;25.24;45.83;98917.00;7315721;19;128942;-44
2022/06/25 04:31:25;;;;;;;;;;;;;;;25.23;45.90;98920.63;7316130;19;129804;-31
2022/06/25 04:33:51;;;;;;;;;;;;;;;25.18;45.93;98913.28;7314110;19;129763;-34
2022/06/25 04:36:16;;;;;;;;;;;;;;;25.44;50.57;98923.41;7315289;19;129191;-36
2022/06/25 04:38:41;;;;;;;;;;;;;;;25.65;51.30;98931.41;7311715;19;129077;-34
2022/06/25 04:41:07;;;;;;;;;;;;;;;25.75;51.65;98931.94;7314972;19;129691;-34
2022/06/25 04:43:32;;;;;;;;;;;;;;;25.84;50.91;98930.03;7313041;19;129928;-38
2022/06/25 04:45:57;;;;;;;;;;;;;;;25.89;51.07;98939.03;7314956;19;129241;-40
2022/06/25 04:48:22;;;;;;;;;;;;;;;25.93;51.78;98935.03;7311494;19;128997;-38
2022/06/25 04:50:48;;;;;;;;;;;;;;;25.97;51.59;98941.56;7315047;19;129166;-31
2022/06/25 04:53:13;;;;;;;;;;;;;;;25.96;52.04;98937.28;7315075;19;130311;-37
2022/06/25 04:55:38;;;;;;;;;;;;;;;25.99;51.78;98939.56;7315801;19;129157;-40
2022/06/25 04:58:04;;;;;;;;;;;;;;;26.00;52.22;98938.53;7313440;19;128977;-32
2022/06/25 05:00:29;;;;;;;;;;;;;;;26.00;51.65;98943.81;7314628;19;129024;-36
2022/06/25 05:02:54;;;;;;;;;;;;;;;25.59;46.32;98945.28;7314936;19;129274;-34
2022/06/25 05:05:19;;;;;;;;;;;;;;;25.31;46.79;98938.97;7313527;19;129270;-34
2022/06/25 05:07:45;;;;;;;;;;;;;;;25.22;46.01;98934.78;7313975;19;130065;-33
2022/06/25 05:10:10;;;;;;;;;;;;;;;25.23;46.38;98941.66;7314928;19;129345;-34
2022/06/25 05:15:19;;;;;;;;;;;;;;;25.24;45.38;98953.81;7315272;19;129140;-43
2022/06/25 05:17:44;;;;;;;;;;;;;;;25.24;45.60;98954.66;7313221;19;128824;-39
2022/06/25 05:20:10;;;;;;;;;;;;;;;25.49;50.93;98958.72;7315287;19;129500;-34
2022/06/25 05:22:35;;;;;;;;;;;;;;;25.69;51.66;98969.53;7313903;19;130762;-36
2022/06/25 05:25:01;;;;;;;;;;;;;;;25.78;51.59;98955.28;7314395;19;128978;-35
2022/06/25 05:27:27;;;;;;;;;;;;;;;25.85;51.39;98952.75;7313391;19;129150;-37
2022/06/25 05:29:53;;;;;;;;;;;;;;;25.91;51.66;98960.72;7314326;19;130098;-33
2022/06/25 05:32:18;;;;;;;;;;;;;;;25.94;51.81;98963.00;7313647;19;129248;-33
2022/06/25 05:34:43;;;;;;;;;;;;;;;25.95;52.07;98956.72;7314528;19;129830;-34
2022/06/25 05:37:08;;;;;;;;;;;;;;;25.90;51.69;98945.13;7312625;19;129348;-38
2022/06/25 05:39:34;;;;;;;;;;;;;;;25.98;51.84;98958.19;7313147;19;129329;-37
2022/06/25 05:41:59;;;;;;;;;;;;;;;25.75;48.11;98947.72;7314613;19;129683;-32
2022/06/25 05:44:24;;;;;;;;;;;;;;;25.35;46.86;98966.59;7313200;19;129148;-33
2022/06/25 05:46:50;;;;;;;;;;;;;;;25.27;46.44;98961.38;7312971;19;129082;-36
2022/06/25 05:49:15;;;;;;;;;;;;;;;25.24;46.07;98965.16;7312944;19;130453;-39
2022/06/25 05:51:40;;;;;;;;;;;;;;;25.23;46.13;98960.09;7313594;19;130211;-38
2022/06/25 05:54:05;;;;;;;;;;;;;;;25.16;46.08;98952.09;7313608;19;129303;-31
2022/06/25 05:56:31;;;;;;;;;;;;;;;25.25;45.76;98964.19;7313405;19;128845;-37
2022/06/25 05:58:56;;;;;;;;;;;;;;;25.39;50.64;98957.34;7310226;19;130073;-37
2022/06/25 06:01:22;;;;;;;;;;;;;;;25.65;50.96;98963.00;7313155;19;130690;-36
2022/06/25 06:03:47;;;;;;;;;;;;;;;25.76;51.30;98967.81;7312507;19;128923;-35
2022/06/25 06:06:12;;;;;;;;;;;;;;;25.83;51.60;98971.38;7313926;19;129087;-37
2022/06/25 06:08:37;;;;;;;;;;;;;;;25.87;51.84;98975.25;7308683;19;129256;-34
2022/06/25 06:11:03;;;;;;;;;;;;;;;25.94;51.32;98972.69;7311737;19;129644;-35
2022/06/25 06:13:28;;;;;;;;;;;;;;;25.89;52.01;98965.34;7313937;19;129067;-35
2022/06/25 06:15:53;;;;;;;;;;;;;;;25.99;52.05;98976.44;7312707;19;129080;-34
2022/06/25 06:18:18;;;;;;;;;;;;;;;25.98;51.53;98974.78;7310562;19;129323;-34
2022/06/25 06:20:43;;;;;;;;;;;;;;;26.00;51.56;98980.69;7312481;19;130967;-35
2022/06/25 06:23:09;;;;;;;;;;;;;;;25.90;52.04;98961.72;7311224;19;128837;-44
2022/06/25 06:25:34;;;;;;;;;;;;;;;25.43;46.54;98980.50;7312457;19;128858;-32
2022/06/25 06:27:59;;;;;;;;;;;;;;;25.27;46.37;98971.91;7310090;19;129693;-37
2022/06/25 06:30:24;;;;;;;;;;;;;;;25.24;46.67;98980.97;7312094;19;130286;-32
2022/06/25 06:32:50;;;;;;;;;;;;;;;25.23;46.47;98983.78;7312136;19;129738;-31
2022/06/25 06:35:16;;;;;;;;;;;;;;;25.24;45.91;98990.66;7313061;19;131717;-41
2022/06/25 06:37:41;;;;;;;;;;;;;;;25.19;46.06;98983.31;7310431;19;130928;-39
2022/06/25 06:40:07;;;;;;;;;;;;;;;25.28;45.70;98997.22;7311907;19;131219;-34
2022/06/25 06:42:32;;;;;;;;;;;;;;;25.45;50.84;98982.94;7311477;19;129179;-33
2022/06/25 06:44:57;;;;;;;;;;;;;;;25.69;51.04;98995.84;7312280;19;129064;-38
2022/06/25 06:47:23;;;;;;;;;;;;;;;25.80;51.18;98994.59;7310776;19;130278;-33
2022/06/25 06:49:48;;;;;;;;;;;;;;;25.86;51.68;98999.97;7310968;19;129098;-34
2022/06/25 06:52:13;;;;;;;;;;;;;;;25.91;51.28;98996.78;7310759;19;128744;-39
2022/06/25 06:54:39;;;;;;;;;;;;;;;25.95;51.63;99003.34;7311242;19;129137;-32
2022/06/25 06:57:04;;;;;;;;;;;;;;;25.96;51.77;98997.06;7311364;19;129040;-38
2022/06/25 06:59:29;;;;;;;;;;;;;;;25.98;51.91;98998.50;7308571;19;129545;-33
2022/06/25 07:01:55;;;;;;;;;;;;;;;25.97;52.11;98998.69;7312189;19;129140;-38
2022/06/25 07:04:20;;;;;;;;;;;;;;;26.00;52.17;98998.34;7312132;19;129734;-32
2022/06/25 07:06:45;;;;;;;;;;;;;;;25.44;46.06;99002.34;7310660;19;130108;-40
2022/06/25 07:09:10;;;;;;;;;;;;;;;25.31;46.05;98999.47;7310962;19;129241;-38
2022/06/25 07:11:36;;;;;;;;;;;;;;;25.27;46.62;99000.84;7311026;19;128930;-33
2022/06/25 07:14:03;;;;;;;;;;;;;;;25.26;45.89;98999.19;7310481;19;128985;-33
2022/06/25 07:16:29;;;;;;;;;;;;;;;25.25;46.18;99003.66;7311185;19;131050;-37
2022/06/25 07:18:55;;;;;;;;;;;;;;;25.26;45.90;98999.19;7307746;19;130617;-39
2022/06/25 07:21:21;;;;;;;;;;;;;;;25.40;49.53;99011.63;7311991;19;128977;-40
2022/06/25 07:23:46;;;;;;;;;;;;;;;25.63;51.18;99015.03;7310238;19;129591;-37
2022/06/25 07:26:11;;;;;;;;;;;;;;;25.74;51.15;99004.03;7311257;19;130270;-39
2022/06/25 07:28:37;;;;;;;;;;;;;;;25.80;50.99;99003.31;7315250;19;130877;-34
2022/06/25 07:31:05;;;;;;;;;;;;;;;25.87;51.36;99004.22;7316512;19;129386;-36
2022/06/25 07:33:31;;;;;;;;;;;;;;;25.92;51.91;99007.13;7316888;19;130076;-32
2022/06/25 07:35:57;;;;;;;;;;;;;;;25.95;51.41;99006.75;7317314;19;129882;-42
2022/06/25 07:38:22;;;;;;;;;;;;;;;25.97;51.69;99007.41;7316074;19;129703;-32
2022/06/25 07:40:47;;;;;;;;;;;;;;;25.99;51.85;99008.03;7317388;19;128950;-39
2022/06/25 07:43:13;;;;;;;;;;;;;;;26.00;51.90;99008.88;7316668;19;128799;-34
2022/06/25 07:45:38;;;;;;;;;;;;;;;26.00;51.84;99009.66;7317058;19;129378;-34
2022/06/25 07:48:03;;;;;;;;;;;;;;;25.48;46.84;98998.38;7315040;19;129580;-37
2022/06/25 07:53:12;;;;;;;;;;;;;;;25.27;46.51;99001.66;7317632;19;129322;-32
2022/06/25 07:55:38;;;;;;;;;;;;;;;25.26;46.05;99004.47;7317732;19;130931;-39
2022/06/25 07:58:03;;;;;;;;;;;;;;;25.25;45.92;99003.66;7314919;19;129754;-33
2022/06/25 08:00:28;;;;;;;;;;;;;;;25.27;45.51;99006.13;7316281;19;129098;-37
2022/06/25 08:02:53;;;;;;;;;;;;;;;25.35;47.95;99011.34;7315286;19;129960;-36
2022/06/25 08:05:19;;;;;;;;;;;;;;;25.51;50.82;99008.53;7315996;19;129905;-34
2022/06/25 08:07:46;;;;;;;;;;;;;;;25.73;51.21;99023.47;7315668;19;129277;-33
2022/06/25 08:10:11;;;;;;;;;;;;;;;25.81;51.52;99028.66;7316502;19;128908;-38
2022/06/25 08:12:36;;;;;;;;;;;;;;;25.87;51.31;99019.19;7315738;19;128859;-37
2022/06/25 08:15:02;;;;;;;;;;;;;;;25.82;51.17;99005.78;7316570;19;130950;-34
2022/06/25 08:17:27;;;;;;;;;;;;;;;25.96;51.24;99023.38;7314766;19;129568;-38
2022/06/25 08:19:52;;;;;;;;;;;;;;;25.98;51.99;99032.72;7315055;19;129273;-33
2022/06/25 08:22:18;;;;;;;;;;;;;;;25.98;51.94;99029.31;7315328;19;130886;-35
2022/06/25 08:24:43;;;;;;;;;;;;;;;25.90;52.36;99018.84;7316574;19;130303;-34
2022/06/25 08:27:10;;;;;;;;;;;;;;;25.99;52.52;99039.66;7315061;19;129181;-43
2022/06/25 08:29:35;;;;;;;;;;;;;;;25.71;47.56;99049.16;7315886;19;128952;-38
2022/06/25 08:32:00;;;;;;;;;;;;;;;25.33;46.16;99042.22;7315258;19;129131;-35
2022/06/25 08:34:26;;;;;;;;;;;;;;;25.27;46.14;99054.28;7316186;19;129427;-35
2022/06/25 08:36:51;;;;;;;;;;;;;;;25.26;46.09;99057.91;7314501;19;129645;-42
2022/06/25 08:39:16;;;;;;;;;;;;;;;25.25;45.68;99053.66;7311158;19;128998;-33
2022/06/25 08:41:42;;;;;;;;;;;;;;;25.26;45.52;99059.72;7316303;19;129563;-38
2022/06/25 08:44:07;;;;;;;;;;;;;;;25.28;46.17;99060.38;7315389;19;130100;-33
2022/06/25 08:46:33;;;;;;;;;;;;;;;25.42;50.06;99065.69;7316816;19;129272;-33
2022/06/25 08:49:00;;;;;;;;;;;;;;;25.64;51.59;99056.97;7311871;19;129352;-32
2022/06/25 08:51:28;;;;;;;;;;;;;;;25.76;51.41;99065.25;7316703;19;129114;-33
2022/06/25 08:53:57;;;;;;;;;;;;;;;25.84;51.39;99067.78;7313143;19;128999;-41
2022/06/25 08:56:23;;;;;;;;;;;;;;;25.87;51.41;99064.81;7314800;19;130390;-34
2022/06/25 08:58:48;;;;;;;;;;;;;;;25.83;51.36;99058.28;7311771;19;128915;-37
2022/06/25 09:01:13;;;;;;;;;;;;;;;25.95;51.49;99075.25;7315191;19;128893;-36
2022/06/25 09:03:39;;;;;;;;;;;;;;;25.98;51.62;99074.88;7314302;19;129810;-32
2022/06/25 09:06:14;;;;;;;;;;;;;;;25.99;51.51;99079.16;7314546;19;130327;-38
2022/06/25 09:08:40;;;;;;;;;;;;;;;26.00;52.20;99083.44;7313661;19;129186;-32
2022/06/25 09:11:05;;;;;;;;;;;;;;;26.00;52.31;99082.63;7315546;19;129631;-32
2022/06/25 09:13:31;;;;;;;;;;;;;;;25.54;46.53;99081.88;7314543;19;131152;-33
2022/06/25 09:15:56;;;;;;;;;;;;;;;25.29;46.81;99083.03;7314790;19;129415;-39
2022/06/25 09:18:21;;;;;;;;;;;;;;;25.29;46.09;99080.41;7312465;19;129237;-37
2022/06/25 09:21:00;;;;;;;;;;;;;;;25.25;46.44;99076.50;7316138;19;128910;-37
2022/06/25 09:23:26;;;;;;;;;;;;;;;25.25;46.29;99081.78;7313595;19;129987;-36
2022/06/25 09:26:04;;;;;;;;;;;;;;;25.28;46.17;99079.63;7314999;19;131642;-34
2022/06/25 09:28:30;;;;;;;;;;;;;;;25.29;45.76;99083.03;7311136;19;129548;-36
2022/06/25 09:30:55;;;;;;;;;;;;;;;25.50;50.77;99084.06;7314908;19;130672;-40
2022/06/25 09:33:20;;;;;;;;;;;;;;;25.69;51.15;99085.38;7312818;19;130831;-31
2022/06/25 09:35:49;;;;;;;;;;;;;;;25.78;51.93;99081.69;7312034;19;130584;-36
2022/06/25 09:38:16;;;;;;;;;;;;;;;25.86;51.90;99081.63;7312075;19;129948;-38
2022/06/25 09:40:48;;;;;;;;;;;;;;;25.92;51.53;99087.97;7314164;19;128906;-40
2022/06/25 09:43:15;;;;;;;;;;;;;;;25.94;51.79;99084.16;7313260;19;130115;-37
2022/06/25 09:45:42;;;;;;;;;;;;;;;25.88;51.86;99061.19;7314315;19;130804;-33
2022/06/25 09:48:09;;;;;;;;;;;;;;;25.98;52.15;99085.41;7312159;19;129178;-32
2022/06/25 09:50:34;;;;;;;;;;;;;;;25.98;52.12;99088.06;7312899;19;129646;-32
2022/06/25 09:52:59;;;;;;;;;;;;;;;26.00;52.15;99083.44;7312820;19;129626;-38
2022/06/25 09:55:27;;;;;;;;;;;;;;;26.01;51.72;99085.13;7313467;19;129272;-35
2022/06/25 09:57:53;;;;;;;;;;;;;;;25.48;46.75;99083.44;7311524;19;130008;-31
2022/06/25 10:00:20;;;;;;;;;;;;;;;25.34;46.75;99085.97;7314356;19;130720;-33
2022/06/25 10:02:46;;;;;;;;;;;;;;;25.16;46.08;99073.09;7312964;19;130205;-43
2022/06/25 10:05:11;;;;;;;;;;;;;;;25.23;45.84;99083.75;7313516;19;130325;-30
2022/06/25 10:10:21;;;;;;;;;;;;;;;25.27;45.81;99092.94;7312811;19;129950;-36
2022/06/25 10:12:47;;;;;;;;;;;;;;;25.39;49.64;99094.19;7313039;19;130436;-36
2022/06/25 10:15:15;;;;;;;;;;;;;;;25.61;51.84;99088.09;7312595;19;130334;-38
2022/06/25 10:17:40;;;;;;;;;;;;;;;25.73;51.24;99084.03;7312499;19;129240;-31
2022/06/25 10:20:06;;;;;;;;;;;;;;;25.81;51.40;99089.22;7313006;19;129262;-34
2022/06/25 10:22:32;;;;;;;;;;;;;;;25.88;51.65;99084.88;7312905;19;133392;-32
2022/06/25 10:24:59;;;;;;;;;;;;;;;25.93;51.65;99081.72;7313050;19;131406;-34
2022/06/25 10:27:24;;;;;;;;;;;;;;;25.95;52.11;99080.50;7311711;19;129237;-36
2022/06/25 10:29:54;;;;;;;;;;;;;;;25.98;51.94;99074.09;7313166;19;130249;-32
2022/06/25 10:32:19;;;;;;;;;;;;;;;25.98;52.24;99080.16;7311106;19;129655;-36
2022/06/25 10:34:55;;;;;;;;;;;;;;;26.00;52.28;99075.53;7312844;19;129391;-36
2022/06/25 10:37:20;;;;;;;;;;;;;;;25.99;52.55;99076.53;7310843;19;130461;-33
2022/06/25 10:39:51;;;;;;;;;;;;;;;25.75;48.59;99068.06;7309685;19;129337;-43
2022/06/25 10:45:01;;;;;;;;;;;;;;;25.29;46.09;99067.25;7313199;19;128824;-32
2022/06/25 10:47:41;;;;;;;;;;;;;;;25.18;46.55;99054.50;7311641;19;129072;-36
2022/06/25 10:50:22;;;;;;;;;;;;;;;25.28;46.00;99066.44;7311974;19;129942;-34
2022/06/25 10:53:02;;;;;;;;;;;;;;;25.29;45.56;99068.06;7311480;19;130329;-34
2022/06/25 10:55:50;;;;;;;;;;;;;;;25.28;45.70;99065.63;7310444;19;130757;-31
2022/06/25 10:58:17;;;;;;;;;;;;;;;25.55;51.17;99067.75;7308989;19;129394;-44
2022/06/25 11:00:52;;;;;;;;;;;;;;;25.72;51.32;99061.31;7311402;19;129080;-41
2022/06/25 11:03:37;;;;;;;;;;;;;;;25.80;51.13;99061.25;7316675;19;129433;-31
2022/06/25 11:06:22;;;;;;;;;;;;;;;25.86;51.43;99060.53;7317857;19;130193;-38
2022/06/25 11:08:48;;;;;;;;;;;;;;;25.92;51.01;99070.34;7316534;19;129266;-33
2022/06/25 11:11:22;;;;;;;;;;;;;;;25.94;52.24;99068.34;7319022;19;129954;-34
2022/06/25 11:13:47;;;;;;;;;;;;;;;25.87;51.54;99050.81;7318087;19;129077;-38
2022/06/25 11:16:13;;;;;;;;;;;;;;;25.98;52.33;99074.09;7318916;19;129665;-36
2022/06/25 11:18:44;;;;;;;;;;;;;;;25.89;51.92;99051.44;7315831;19;130708;-32
2022/06/25 11:21:10;;;;;;;;;;;;;;;26.01;52.05;99064.03;7317975;19;129825;-32
2022/06/25 11:23:35;;;;;;;;;;;;;;;25.45;46.22;99069.81;7316760;19;131274;-31
2022/06/25 11:28:49;;;;;;;;;;;;;;;25.28;46.07;99073.53;7315649;19;130012;-40
2022/06/25 11:31:14;;;;;;;;;;;;;;;25.26;46.09;99072.88;7317421;19;129028;-35
2022/06/25 11:33:40;;;;;;;;;;;;;;;25.28;45.96;99076.16;7317407;19;129579;-34
2022/06/25 11:36:12;;;;;;;;;;;;;;;25.28;45.91;99076.16;7317172;19;131529;-36
2022/06/25 11:38:42;;;;;;;;;;;;;;;25.40;49.73;99080.84;7314897;19;129372;-38
2022/06/25 11:41:17;;;;;;;;;;;;;;;25.61;51.75;99077.56;7318274;19;128992;-37
2022/06/25 11:43:43;;;;;;;;;;;;;;;25.73;51.60;99075.31;7317321;19;130476;-33
2022/06/25 11:46:08;;;;;;;;;;;;;;;25.82;51.18;99075.06;7316334;19;129370;-46
2022/06/25 11:48:33;;;;;;;;;;;;;;;25.87;51.21;99067.44;7315403;19;129365;-39
2022/06/25 11:51:00;;;;;;;;;;;;;;;25.93;51.59;99074.63;7317730;19;128775;-32
2022/06/25 11:53:25;;;;;;;;;;;;;;;25.94;51.54;99083.34;7316311;19;131142;-35
2022/06/25 11:55:56;;;;;;;;;;;;;;;25.90;52.19;99068.91;7318214;19;130159;-31
2022/06/25 11:58:22;;;;;;;;;;;;;;;25.98;51.57;99088.06;7315123;19;129090;-39
2022/06/25 12:00:47;;;;;;;;;;;;;;;25.99;51.69;99076.53;7317878;19;129307;-32
2022/06/25 12:03:12;;;;;;;;;;;;;;;25.97;52.45;99075.91;7314590;19;131036;-36
2022/06/25 12:05:37;;;;;;;;;;;;;;;25.52;46.30;99082.06;7317247;19;130563;-34
2022/06/25 12:08:03;;;;;;;;;;;;;;;25.35;46.74;99074.50;7313864;19;130547;-35
2022/06/25 12:10:29;;;;;;;;;;;;;;;25.29;46.34;99077.78;7316022;19;128756;-34
2022/06/25 12:12:54;;;;;;;;;;;;;;;25.28;46.03;99070.88;7316011;19;129848;-34
2022/06/25 12:15:27;;;;;;;;;;;;;;;25.28;46.16;99076.16;7314913;19;129158;-31
2022/06/25 12:18:01;;;;;;;;;;;;;;;25.29;45.67;99077.78;7315764;19;129069;-33
2022/06/25 12:20:26;;;;;;;;;;;;;;;25.32;45.45;99077.44;7315741;19;128844;-41
2022/06/25 12:22:52;;;;;;;;;;;;;;;25.55;51.08;99073.00;7315733;19;129180;-30
2022/06/25 12:25:27;;;;;;;;;;;;;;;25.69;51.43;99070.41;7316094;19;130849;-36
2022/06/25 12:27:53;;;;;;;;;;;;;;;25.80;51.67;99063.88;7313988;19;129099;-40
2022/06/25 12:30:25;;;;;;;;;;;;;;;25.87;51.16;99067.44;7315982;19;130073;-35
2022/06/25 12:32:52;;;;;;;;;;;;;;;25.91;51.99;99068.72;7315461;19;130743;-43
2022/06/25 12:35:19;;;;;;;;;;;;;;;25.95;52.10;99069.19;7316099;19;130321;-38
2022/06/25 12:37:58;;;;;;;;;;;;;;;25.97;51.85;99067.16;7313559;19;129218;-32
2022/06/25 12:40:24;;;;;;;;;;;;;;;25.89;51.67;99051.44;7313618;19;129197;-37
2022/06/25 12:42:56;;;;;;;;;;;;;;;26.00;51.80;99072.88;7315800;19;130211;-33
2022/06/25 12:45:22;;;;;;;;;;;;;;;25.99;52.18;99079.16;7314509;19;128929;-37
2022/06/25 12:47:47;;;;;;;;;;;;;;;26.00;51.97;99072.09;7314958;19;129189;-36
2022/06/25 12:50:24;;;;;;;;;;;;;;;25.40;46.40;99069.53;7316004;19;128964;-38